createdAt,value
2023-01-27T00:03:25.396Z,100381.22
2023-01-27T00:08:30.485Z,100370.22
2023-01-27T00:13:34.225Z,100374.47
2023-01-27T00:18:38.336Z,100379.59
2023-01-27T00:24:00.629Z,100306.13
2023-01-27T00:29:04.506Z,100366.81
2023-01-27T00:34:11.448Z,100375.28
2023-01-27T00:39:15.752Z,100365.91
2023-01-27T00:44:20.414Z,100360.88
2023-01-27T00:49:24.794Z,100362.53
2023-01-27T00:54:28.684Z,100361.59
2023-01-27T00:59:33.205Z,100346.31
2023-01-27T01:04:37.073Z,100355.63
2023-01-27T01:09:41.954Z,100347.94
2023-01-27T01:14:45.698Z,100332.78
2023-01-27T01:19:50.722Z,100338.63
2023-01-27T01:24:55.442Z,100343.75
2023-01-27T01:29:59.621Z,100344.59
2023-01-27T01:35:03.570Z,100331.84
2023-01-27T01:40:09.265Z,100322.56
2023-01-27T01:45:34.562Z,100311.53
2023-01-27T01:50:41.797Z,100322.63
2023-01-27T01:55:47.085Z,100332.00
2023-01-27T02:00:51.177Z,100319.28
2023-01-27T02:05:57.059Z,100328.59
2023-01-27T02:11:00.957Z,100331.13
2023-01-27T02:16:05.018Z,100292.06
2023-01-27T02:21:09.864Z,100322.66
2023-01-27T02:26:22.826Z,100330.34
2023-01-27T02:31:26.934Z,100332.03
2023-01-27T02:36:36.972Z,100332.03
2023-01-27T02:41:46.899Z,100323.50
2023-01-27T02:46:50.879Z,100334.53
2023-01-27T02:51:54.743Z,100309.94
2023-01-27T02:57:01.726Z,100303.97
2023-01-27T03:02:08.244Z,100326.91
2023-01-27T03:07:12.315Z,100320.09
2023-01-27T03:12:22.402Z,100313.28
2023-01-27T03:17:45.887Z,100362.50
2023-01-27T03:22:51.306Z,100320.03
2023-01-27T03:27:58.345Z,100345.47
2023-01-27T03:33:09.160Z,100355.75
2023-01-27T03:38:50.974Z,100328.75
2023-01-27T03:44:13.519Z,100337.09
2023-01-27T03:49:17.391Z,100372.72
2023-01-27T03:54:21.347Z,100365.09
2023-01-27T03:59:24.969Z,100371.06
2023-01-27T04:04:47.557Z,100389.75
2023-01-27T04:09:52.761Z,100396.63
2023-01-27T04:14:56.647Z,100394.13
2023-01-27T04:20:00.697Z,100420.34
2023-01-27T04:25:04.847Z,100426.31
2023-01-27T04:30:09.537Z,100424.63
2023-01-27T04:35:13.629Z,100432.34
2023-01-27T04:40:17.552Z,100437.44
2023-01-27T04:45:21.484Z,100443.41
2023-01-27T04:50:25.179Z,100461.25
2023-01-27T04:55:28.994Z,100463.00
2023-01-27T05:00:33.388Z,100474.09
2023-01-27T05:05:38.185Z,100477.53
2023-01-27T05:10:45.885Z,100479.31
2023-01-27T05:15:49.969Z,100465.84
2023-01-27T05:20:53.937Z,100481.06
2023-01-27T05:25:57.618Z,100498.03
2023-01-27T05:31:10.959Z,100500.59
2023-01-27T05:36:17.521Z,100499.72
2023-01-27T05:41:22.761Z,100493.75
2023-01-27T05:46:30.143Z,100498.81
2023-01-27T05:51:40.509Z,100481.88
2023-01-27T05:56:44.294Z,100475.97
2023-01-27T06:01:48.301Z,100493.84
2023-01-27T06:06:52.299Z,100486.22
2023-01-27T06:11:56.157Z,100492.16
2023-01-27T06:17:02.668Z,100501.47
2023-01-27T06:22:06.299Z,100487.09
2023-01-27T06:27:11.770Z,100475.19
2023-01-27T06:32:15.553Z,100487.06
2023-01-27T06:37:19.453Z,100489.59
2023-01-27T06:42:23.442Z,100495.56
2023-01-27T06:47:27.164Z,100510.84
2023-01-27T06:52:31.110Z,100512.56
2023-01-27T06:57:34.802Z,100502.38
2023-01-27T07:02:38.768Z,100515.09
2023-01-27T07:07:42.940Z,100493.06
2023-01-27T07:12:46.760Z,100482.06
2023-01-27T07:17:50.775Z,100498.97
2023-01-27T07:22:54.501Z,100509.19
2023-01-27T07:28:00.582Z,100510.88
2023-01-27T07:33:13.810Z,100524.44
2023-01-27T07:38:17.538Z,100532.09
2023-01-27T07:43:21.557Z,100531.25
2023-01-27T07:48:25.502Z,100548.22
2023-01-27T07:53:29.348Z,100534.63
2023-01-27T07:58:33.270Z,100518.59
2023-01-27T08:03:37.518Z,100526.22
2023-01-27T08:08:41.698Z,100542.28
2023-01-27T08:13:45.493Z,100554.16
2023-01-27T08:18:50.530Z,100544.00
2023-01-27T08:23:54.690Z,100560.13
2023-01-27T08:28:58.723Z,100549.13
2023-01-27T08:34:02.829Z,100559.28
2023-01-27T08:39:06.650Z,100553.34
2023-01-27T08:44:10.660Z,100479.81
2023-01-27T08:49:14.803Z,100567.78
2023-01-27T08:54:18.684Z,100574.59
2023-01-27T08:59:24.025Z,100583.03
2023-01-27T09:04:29.943Z,100585.59
2023-01-27T09:09:33.994Z,100586.47
2023-01-27T09:14:38.676Z,100599.19
2023-01-27T09:19:42.733Z,100594.94
2023-01-27T09:24:46.467Z,100617.00
2023-01-27T09:29:50.327Z,100618.69
2023-01-27T09:34:54.498Z,100630.56
2023-01-27T09:40:05.039Z,100630.59
2023-01-27T09:45:31.715Z,100630.59
2023-01-27T09:51:19.870Z,100637.38
2023-01-27T09:56:23.413Z,100650.94
2023-01-27T10:01:42.519Z,100640.78
2023-01-27T10:07:17.265Z,100647.56
2023-01-27T10:12:23.911Z,100664.50
2023-01-27T10:17:53.773Z,100669.59
2023-01-27T10:23:11.177Z,100673.00
2023-01-27T10:28:18.105Z,100686.56
2023-01-27T10:33:28.705Z,100687.41
2023-01-27T10:39:02.153Z,100692.50
2023-01-27T10:44:31.796Z,100690.81
2023-01-27T10:49:42.007Z,100687.41
2023-01-27T10:55:00.497Z,100696.72
2023-01-27T11:01:12.980Z,100707.75
2023-01-27T11:05:53.986Z,100711.16
2023-01-27T11:11:20.038Z,100709.44
2023-01-27T11:16:26.635Z,100718.78
2023-01-27T11:21:33.708Z,100700.13
2023-01-27T11:26:45.500Z,100720.47
2023-01-27T11:32:11.599Z,100720.47
2023-01-27T11:37:20.520Z,100707.78
2023-01-27T11:42:32.953Z,100726.41
2023-01-27T11:47:40.726Z,100735.72
2023-01-27T11:52:50.693Z,100707.78
2023-01-27T11:58:15.401Z,100723.88
2023-01-27T12:03:49.276Z,100739.13
2023-01-27T12:08:53.339Z,100737.44
2023-01-27T12:14:07.753Z,100724.72
2023-01-27T12:19:36.460Z,100736.59
2023-01-27T12:24:51.022Z,100732.31
2023-01-27T12:29:59.310Z,100745.06
2023-01-27T12:35:03.767Z,100730.66
2023-01-27T12:40:18.373Z,100743.38
2023-01-27T12:45:25.955Z,100741.66
2023-01-27T12:50:35.929Z,100751.84
2023-01-27T12:55:43.022Z,100747.59
2023-01-27T13:00:47.173Z,100750.13
2023-01-27T13:05:56.285Z,100773.88
2023-01-27T13:11:03.218Z,100756.91
2023-01-27T13:16:31.673Z,100778.94
2023-01-27T13:21:38.919Z,100774.72
2023-01-27T13:26:43.351Z,100790.81
2023-01-27T13:32:07.755Z,100725.56
2023-01-27T13:37:33.801Z,100813.69
2023-01-27T13:42:57.535Z,100802.69
2023-01-27T13:48:19.250Z,100791.66
2023-01-27T13:53:23.207Z,100816.25
2023-01-27T13:58:32.704Z,100825.56
2023-01-27T14:03:46.863Z,100821.31
2023-01-27T14:09:24.355Z,100828.97
2023-01-27T14:14:34.052Z,100838.28
2023-01-27T14:20:01.719Z,100843.38
2023-01-27T14:25:25.151Z,100829.81
2023-01-27T14:30:41.259Z,100830.66
2023-01-27T14:35:52.392Z,100853.53
2023-01-27T14:41:21.127Z,100868.78
2023-01-27T14:46:37.045Z,100876.44
2023-01-27T14:51:48.558Z,100876.44
2023-01-27T14:57:10.380Z,100878.97
2023-01-27T15:02:44.998Z,100897.63
2023-01-27T15:08:17.230Z,100883.22
2023-01-27T15:13:24.815Z,100899.31
2023-01-27T15:18:43.468Z,100903.56
2023-01-27T15:24:26.342Z,100896.75
2023-01-27T15:29:32.618Z,100903.53
2023-01-27T15:34:36.401Z,100920.50
2023-01-27T15:40:04.054Z,100906.09
2023-01-27T15:45:27.706Z,100926.44
2023-01-27T15:50:34.149Z,100933.22
2023-01-27T15:55:39.467Z,100930.69
2023-01-27T16:00:51.379Z,100925.59
2023-01-27T16:06:10.688Z,100929.81
2023-01-27T16:11:30.221Z,100936.59
2023-01-27T16:16:36.941Z,100908.63
2023-01-27T16:21:59.536Z,100947.63
2023-01-27T16:27:44.030Z,100950.19
2023-01-27T16:33:08.218Z,100946.78
2023-01-27T16:38:17.828Z,100951.88
2023-01-27T16:43:33.378Z,100948.47
2023-01-27T16:48:49.744Z,100972.22
2023-01-27T16:54:01.031Z,100975.63
2023-01-27T16:59:21.971Z,100985.78
2023-01-27T17:04:28.205Z,100972.22
2023-01-27T17:09:36.026Z,100977.31
2023-01-27T17:14:47.071Z,100990.88
2023-01-27T17:19:54.088Z,100996.81
2023-01-27T17:25:04.676Z,101000.19
2023-01-27T17:30:11.296Z,101003.56
2023-01-27T17:35:27.255Z,101013.75
2023-01-27T17:40:40.344Z,101009.50
2023-01-27T17:45:44.476Z,101012.06
2023-01-27T17:50:48.188Z,101018.81
2023-01-27T17:55:54.388Z,101015.44
2023-01-27T18:00:58.200Z,101013.75
2023-01-27T18:06:05.179Z,101016.28
2023-01-27T18:11:20.707Z,101006.97
2023-01-27T18:16:25.304Z,101018.81
2023-01-27T18:21:29.172Z,101021.34
2023-01-27T18:26:39.202Z,101032.41
2023-01-27T18:31:49.017Z,101025.63
2023-01-27T18:36:59.968Z,101038.31
2023-01-27T18:42:10.741Z,101026.44
2023-01-27T18:47:20.461Z,101045.13
2023-01-27T18:52:24.986Z,101039.19
2023-01-27T18:57:29.345Z,101032.41
2023-01-27T19:02:33.352Z,101029.84
2023-01-27T19:07:37.702Z,101039.19
2023-01-27T19:12:41.640Z,101032.38
2023-01-27T19:17:46.865Z,101038.31
2023-01-27T19:22:52.235Z,101029.00
2023-01-27T19:28:03.407Z,101040.88
2023-01-27T19:33:22.614Z,101026.44
2023-01-27T19:38:28.287Z,101023.91
2023-01-27T19:43:33.168Z,101018.81
2023-01-27T19:48:36.805Z,101021.38
2023-01-27T19:53:40.935Z,101029.84
2023-01-27T19:58:54.439Z,101017.97
2023-01-27T20:03:58.278Z,101013.72
2023-01-27T20:09:04.402Z,101010.34
2023-01-27T20:14:19.888Z,101020.50
2023-01-27T20:19:23.769Z,101003.56
2023-01-27T20:24:27.858Z,101002.72
2023-01-27T20:29:34.775Z,100998.50
2023-01-27T20:34:39.125Z,100998.47
2023-01-27T20:39:42.961Z,100996.78
2023-01-27T20:44:46.660Z,100985.78
2023-01-27T20:49:50.574Z,100989.16
2023-01-27T20:54:54.837Z,100987.47
2023-01-27T21:00:03.188Z,101000.19
2023-01-27T21:05:09.019Z,101002.72
2023-01-27T21:10:13.253Z,101005.25
2023-01-27T21:15:17.215Z,101017.13
2023-01-27T21:20:21.101Z,101001.03
2023-01-27T21:25:25.136Z,101003.56
2023-01-27T21:30:30.576Z,100994.25
2023-01-27T21:35:34.711Z,100979.00
2023-01-27T21:40:40.883Z,100988.31
2023-01-27T21:45:44.866Z,100973.88
2023-01-27T21:50:52.393Z,100966.28
2023-01-27T21:55:56.239Z,100968.81
2023-01-27T22:01:06.505Z,100967.97
2023-01-27T22:06:11.131Z,100963.75
2023-01-27T22:11:14.894Z,100973.06
2023-01-27T22:16:19.155Z,100976.47
2023-01-27T22:21:23.128Z,100967.13
2023-01-27T22:26:26.954Z,100949.31
2023-01-27T22:31:31.011Z,100956.97
2023-01-27T22:36:35.082Z,100972.22
2023-01-27T22:41:39.124Z,100945.09
2023-01-27T22:46:43.598Z,100956.97
2023-01-27T22:51:49.057Z,100940.84
2023-01-27T22:56:52.956Z,100931.53
2023-01-27T23:01:56.754Z,100920.50
2023-01-27T23:07:00.645Z,100907.78
2023-01-27T23:12:04.768Z,100908.63
2023-01-27T23:17:08.784Z,100899.31
2023-01-27T23:22:12.799Z,100906.94
2023-01-27T23:27:17.525Z,100900.16
2023-01-27T23:32:21.608Z,100892.53
2023-01-27T23:37:25.496Z,100876.41
2023-01-27T23:42:29.330Z,100895.91
2023-01-27T23:47:33.352Z,100808.56
2023-01-27T23:52:37.173Z,100875.59
2023-01-27T23:57:41.708Z,100861.16
